Kissimmee Gateway Airport
KISM : now visible

Airfield :











YOU CAN JOIN US ON...

 
LOGIN :

Register | Disclaimer

   EN    FR    IT 

 









Legend :    VFR   Marginal VFR   IFR   Intensive IFR   Very Intensive IFR
Visi :
Ceiling :
>= 8 km
>= 3000ft
5 to 8 km
1000 to 3000 ft
1500m to 5 km
500 to 1000 ft
800 to 1500m
200 to 500 ft
< 800m
< 200 ft
Symbols :   Thunderstorms  Fog  Heavy snow  Heavy precipitations  Wind > 20 kt






- Airport Elevation : 82 ft


KISM - Kissimmee Gateway

CURRENT METAR :
  • 041056Z 23005KT 9SM CLR 24/24 A2995 RMK AO2 SLP141 T02390239 PNO $

EXPIRED METARs :
  • 040956Z AUTO 00000KT 10SM CLR 24/24 A2993 RMK AO2 SLP135 T02440239 PNO $
  • 040856Z AUTO 28003KT 10SM CLR 25/24 A2993 RMK AO2 SLP133 6//// T02500239 55007 PNO $

TAF KISM
Valid from the 04 at 06:00 until the 05 at 06:00 UTC


040530Z 0406/0506 26004KT P6SM FEW030 SCT080 BKN250
FM041500 26007KT P6SM VCSH SCT025 BKN035
FM041800 27009KT P6SM VCTS SCT035CB BKN060
TEMPO 0418/0421 3SM TSRA BKN035CB OVC080
FM050100 22005KT P6SM SCT040 BKN100 OVC250
FM050300 19003KT P6SM FEW100 BKN250
KZMA FIR / North America



MET'MAP, your aeronautical weather chart ! - Copyright ORBIFLY December 2007 - Disclaimer

ORBIFLY MET'MAP TEAM :

Programming & Development : Alexandra Zaïnal
Concept & original design : Baudouin d'Aumeries
Assistance for programming : Marc-Olivier Méhu
Technical & hardware support : Manuel Goepfert

Contact : metmap@orbifly.com




SOURCES & CREDITS :

   NOAA       Earth
Advisory